Hebburn, United Kingdom
Current Conditions -  °F | °C
As of 10:50 AM on Friday 28 Nov 2014 (Local Time) from EGNT Reporting Station
Haze Haze  
Wind Chill: 50°   Ceiling: 200
Heat Index: 50°   Visibility: 0.75mi
Dew Point: 48°   Wind: 12mph
Humidity: 94%   Direction: 110°ESE
Pressure: 29.74"   Gusts: NA
Location:  54.97°N, 1.52°W
Report Text: EGNT 281050Z 11010KT 1200 BR OVC002 10/09 Q1007
Loading
Personal Weather Stations






























Interactive Weather Map New forecast layout! Learn more

10-Day Weather Forecast

Advertisements
Track Severe Weather on mobile